Terminal Aerodrome Forecast
Issued by NWS

Home | Current Version | Previous Version | Text Only | Print | Product List | Glossary On
Versions: 1 2 3 4 5 6 7 8 9 10 11 12 13 14 15
000
FTUS44 KLIX 270531
TAFHUM
TAF
KHUM 270531Z 2706/2806 35003KT P6SM SKC
     FM271600 33006KT P6SM BKN250
     FM272000 33007KT P6SM SCT100=

USA.gov is the U.S. government's official web portal to all federal, state and local government web resources and services.